createdAt,value
2022-12-12T00:00:12.863Z,30.73
2022-12-12T00:02:41.770Z,33.43
2022-12-12T00:05:11.842Z,30.87
2022-12-12T00:07:48.470Z,29.77
2022-12-12T00:10:18.332Z,29.07
2022-12-12T00:12:46.875Z,32.07
2022-12-12T00:15:15.599Z,30.73
2022-12-12T00:17:44.168Z,34.73
2022-12-12T00:20:12.846Z,32.90
2022-12-12T00:22:41.328Z,34.43
2022-12-12T00:25:10.214Z,33.47
2022-12-12T00:27:40.349Z,33.80
2022-12-12T00:30:09.707Z,33.63
2022-12-12T00:32:38.277Z,35.53
2022-12-12T00:35:07.226Z,32.17
2022-12-12T00:37:35.739Z,37.63
2022-12-12T00:40:04.647Z,34.33
2022-12-12T00:42:33.151Z,31.23
2022-12-12T00:45:03.105Z,31.50
2022-12-12T00:47:31.656Z,34.10
2022-12-12T00:50:00.263Z,29.60
2022-12-12T00:52:28.772Z,35.10
2022-12-12T00:54:57.279Z,29.90
2022-12-12T00:57:25.755Z,35.47
2022-12-12T00:59:54.362Z,33.00
2022-12-12T01:02:28.128Z,33.77
2022-12-12T01:04:57.024Z,29.50
2022-12-12T01:07:25.640Z,32.90
2022-12-12T01:09:54.296Z,33.93
2022-12-12T01:12:23.799Z,36.27
2022-12-12T01:14:52.369Z,33.63
2022-12-12T01:17:20.827Z,32.00
2022-12-12T01:19:50.696Z,34.03
2022-12-12T01:22:24.598Z,31.13
2022-12-12T01:24:56.937Z,33.70
2022-12-12T01:27:25.671Z,34.17
2022-12-12T01:29:56.191Z,34.23
2022-12-12T01:32:24.596Z,33.00
2022-12-12T01:34:54.449Z,33.70
2022-12-12T01:37:23.058Z,30.90
2022-12-12T01:39:51.537Z,33.37
2022-12-12T01:42:21.349Z,31.03
2022-12-12T01:44:51.055Z,32.80
2022-12-12T01:47:20.536Z,32.37
2022-12-12T01:49:50.728Z,34.53
2022-12-12T01:52:21.595Z,36.30
2022-12-12T01:54:52.854Z,33.83
2022-12-12T01:57:23.243Z,37.03
2022-12-12T01:59:51.918Z,31.87
2022-12-12T02:02:20.534Z,37.47
2022-12-12T02:04:49.045Z,33.20
2022-12-12T02:07:18.696Z,32.30
2022-12-12T02:09:50.647Z,32.40
2022-12-12T02:12:19.158Z,35.10
2022-12-12T02:14:49.119Z,31.70
2022-12-12T02:17:31.257Z,33.53
2022-12-12T02:20:18.598Z,31.73
2022-12-12T02:22:58.958Z,33.70
2022-12-12T02:25:40.846Z,33.43
2022-12-12T02:28:17.703Z,36.37
2022-12-12T02:31:08.138Z,33.13
2022-12-12T02:33:40.774Z,31.03
2022-12-12T02:36:14.633Z,36.33
2022-12-12T02:38:48.975Z,31.07
2022-12-12T02:41:19.952Z,33.77
2022-12-12T02:43:56.093Z,33.27
2022-12-12T02:46:27.498Z,33.87
2022-12-12T02:49:00.064Z,38.03
2022-12-12T02:51:29.690Z,34.77
2022-12-12T02:54:00.589Z,35.97
2022-12-12T02:56:45.894Z,33.93
2022-12-12T02:59:16.255Z,37.80
2022-12-12T03:01:48.380Z,35.97
2022-12-12T03:04:39.159Z,39.63
2022-12-12T03:07:29.778Z,36.90
2022-12-12T03:10:03.763Z,34.50
2022-12-12T03:12:37.472Z,38.07
2022-12-12T03:15:11.730Z,32.87
2022-12-12T03:17:43.446Z,39.27
2022-12-12T03:20:22.788Z,36.83
2022-12-12T03:22:53.815Z,38.87
2022-12-12T03:25:25.018Z,39.53
2022-12-12T03:27:57.955Z,36.77
2022-12-12T03:30:28.243Z,37.20
2022-12-12T03:33:11.797Z,37.90
2022-12-12T03:35:44.513Z,37.73
2022-12-12T03:38:15.212Z,35.47
2022-12-12T03:40:47.774Z,33.90
2022-12-12T03:43:18.652Z,34.00
2022-12-12T03:45:49.882Z,35.37
2022-12-12T03:48:21.232Z,33.63
2022-12-12T03:50:53.024Z,34.07
2022-12-12T03:53:24.329Z,33.43
2022-12-12T03:55:55.857Z,35.17
2022-12-12T03:58:29.489Z,35.20
2022-12-12T04:01:00.369Z,37.90
2022-12-12T04:03:31.840Z,34.13
2022-12-12T04:06:23.427Z,34.00
2022-12-12T04:09:10.643Z,37.67
2022-12-12T04:12:11.507Z,37.33
2022-12-12T04:14:47.362Z,39.83
2022-12-12T04:17:17.648Z,38.33
2022-12-12T04:20:07.653Z,37.83
2022-12-12T04:22:56.443Z,36.37
2022-12-12T04:25:31.885Z,38.33
2022-12-12T04:28:04.274Z,36.33
2022-12-12T04:30:34.641Z,33.63
2022-12-12T04:33:08.844Z,32.97
2022-12-12T04:35:40.204Z,36.00
2022-12-12T04:38:13.116Z,39.37
2022-12-12T04:40:44.470Z,34.90
2022-12-12T04:43:17.914Z,36.37
2022-12-12T04:45:49.221Z,30.70
2022-12-12T04:48:21.516Z,33.80
2022-12-12T04:50:51.807Z,41.20
2022-12-12T04:53:22.644Z,36.10
2022-12-12T04:55:53.541Z,34.63
2022-12-12T04:58:22.200Z,36.07
2022-12-12T05:00:56.378Z,36.43
2022-12-12T05:03:33.052Z,40.40
2022-12-12T05:06:02.942Z,44.83
2022-12-12T05:08:34.494Z,39.87
2022-12-12T05:11:06.066Z,37.73
2022-12-12T05:13:36.797Z,38.20
2022-12-12T05:16:08.877Z,34.57
2022-12-12T05:18:37.682Z,38.50
2022-12-12T05:21:06.224Z,37.50
2022-12-12T05:23:36.455Z,34.80
2022-12-12T05:26:07.917Z,36.30
2022-12-12T05:28:38.449Z,37.17
2022-12-12T05:31:07.730Z,32.03
2022-12-12T05:33:36.247Z,36.87
2022-12-12T05:36:05.309Z,33.17
2022-12-12T05:38:34.029Z,35.73
2022-12-12T05:41:04.297Z,34.10
2022-12-12T05:43:32.930Z,34.23
2022-12-12T05:46:02.883Z,33.30
2022-12-12T05:48:31.408Z,38.60
2022-12-12T05:50:59.942Z,40.33
2022-12-12T05:53:28.493Z,30.63
2022-12-12T05:55:59.580Z,37.57
2022-12-12T05:58:29.522Z,37.53
2022-12-12T06:01:03.058Z,41.50
2022-12-12T06:03:32.075Z,36.07
2022-12-12T06:06:00.644Z,31.67
2022-12-12T06:08:30.633Z,36.97
2022-12-12T06:11:00.436Z,37.87
2022-12-12T06:13:30.344Z,33.47
2022-12-12T06:15:58.994Z,32.90
2022-12-12T06:18:27.499Z,33.37
2022-12-12T06:21:03.572Z,37.40
2022-12-12T06:23:32.165Z,36.70
2022-12-12T06:26:02.614Z,30.17
2022-12-12T06:28:32.541Z,32.73
2022-12-12T06:31:02.774Z,38.10
2022-12-12T06:33:35.819Z,32.77
2022-12-12T06:36:05.215Z,32.23
2022-12-12T06:38:34.202Z,34.17
2022-12-12T06:41:06.729Z,31.17
2022-12-12T06:43:36.699Z,32.23
2022-12-12T06:46:06.796Z,30.73
2022-12-12T06:48:36.733Z,35.50
2022-12-12T06:51:10.286Z,34.80
2022-12-12T06:53:39.326Z,30.93
2022-12-12T06:56:09.918Z,28.07
2022-12-12T06:58:39.935Z,32.93
2022-12-12T07:01:08.932Z,32.87
2022-12-12T07:03:37.766Z,31.30
2022-12-12T07:06:06.889Z,32.40
2022-12-12T07:08:36.779Z,31.53
2022-12-12T07:11:06.172Z,34.27
2022-12-12T07:13:35.602Z,36.40
2022-12-12T07:16:05.772Z,39.10
2022-12-12T07:18:34.759Z,38.57
2022-12-12T07:21:05.756Z,37.90
2022-12-12T07:23:34.612Z,35.53
2022-12-12T07:26:05.335Z,35.73
2022-12-12T07:28:34.709Z,40.20
2022-12-12T07:31:07.398Z,39.37
2022-12-12T07:33:43.704Z,36.27
2022-12-12T07:36:13.615Z,41.10
2022-12-12T07:38:42.107Z,36.20
2022-12-12T07:41:12.038Z,36.30
2022-12-12T07:43:43.933Z,36.87
2022-12-12T07:46:15.341Z,35.37
2022-12-12T07:48:48.514Z,39.43
2022-12-12T07:51:17.528Z,40.47
2022-12-12T07:53:46.062Z,34.97
2022-12-12T07:56:19.963Z,33.67
2022-12-12T07:58:49.592Z,32.67
2022-12-12T08:01:19.383Z,29.20
2022-12-12T08:03:49.850Z,26.20
2022-12-12T08:06:19.192Z,25.70
2022-12-12T08:08:48.113Z,28.10
2022-12-12T08:11:22.140Z,24.27
2022-12-12T08:13:51.058Z,30.87
2022-12-12T08:16:20.537Z,32.30
2022-12-12T08:18:50.680Z,32.13
2022-12-12T08:21:25.346Z,33.43
2022-12-12T08:23:57.049Z,30.37
2022-12-12T08:26:26.149Z,33.63
2022-12-12T08:28:54.801Z,34.47
2022-12-12T08:31:25.469Z,39.27
2022-12-12T08:33:55.956Z,38.23
2022-12-12T08:36:25.223Z,35.40
2022-12-12T08:38:53.986Z,33.20
2022-12-12T08:41:25.154Z,32.47
2022-12-12T08:43:53.704Z,32.40
2022-12-12T08:46:22.988Z,31.47
2022-12-12T08:48:51.763Z,32.47
2022-12-12T08:51:22.053Z,30.87
2022-12-12T08:53:51.110Z,30.33
2022-12-12T08:56:19.730Z,35.77
2022-12-12T08:58:48.352Z,30.23
2022-12-12T09:01:18.450Z,30.37
2022-12-12T09:03:48.003Z,30.30
2022-12-12T09:06:17.128Z,32.43
2022-12-12T09:08:48.175Z,31.70
2022-12-12T09:11:18.073Z,31.33
2022-12-12T09:13:46.625Z,38.93
2022-12-12T09:16:15.615Z,35.73
2022-12-12T09:18:48.740Z,34.17
2022-12-12T09:21:18.419Z,35.43
2022-12-12T09:23:50.013Z,32.90
2022-12-12T09:26:19.460Z,30.07
2022-12-12T09:28:48.192Z,28.13
2022-12-12T09:31:16.809Z,32.37
2022-12-12T09:33:45.596Z,26.67
2022-12-12T09:36:15.139Z,24.70
2022-12-12T09:38:43.872Z,25.50
2022-12-12T09:41:16.057Z,26.37
2022-12-12T09:43:48.321Z,28.13
2022-12-12T09:46:21.622Z,26.30
2022-12-12T09:48:50.613Z,29.77
2022-12-12T09:51:20.613Z,30.63
2022-12-12T09:53:51.554Z,30.20
2022-12-12T09:56:24.552Z,22.77
2022-12-12T09:58:57.160Z,31.87
2022-12-12T10:01:31.882Z,31.17
2022-12-12T10:04:05.590Z,29.27
2022-12-12T10:06:37.898Z,26.03
2022-12-12T10:09:11.120Z,26.80
2022-12-12T10:11:51.642Z,28.00
2022-12-12T10:14:21.383Z,26.13
2022-12-12T10:16:55.863Z,27.13
2022-12-12T10:19:28.479Z,28.87
2022-12-12T10:21:58.777Z,26.77
2022-12-12T10:24:31.666Z,29.57
2022-12-12T10:27:09.599Z,29.43
2022-12-12T10:29:41.630Z,29.17
2022-12-12T10:32:18.213Z,25.43
2022-12-12T10:34:59.041Z,26.17
2022-12-12T10:37:39.252Z,27.83
2022-12-12T10:40:15.738Z,26.30
2022-12-12T10:42:49.358Z,31.03
2022-12-12T10:45:39.297Z,25.93
2022-12-12T10:48:07.821Z,23.37
2022-12-12T10:50:37.422Z,24.50
2022-12-12T10:53:08.590Z,22.90
2022-12-12T10:55:40.937Z,22.70
2022-12-12T10:58:11.001Z,23.80
2022-12-12T11:00:41.451Z,25.23
2022-12-12T11:03:28.014Z,24.50
2022-12-12T11:05:58.944Z,22.47
2022-12-12T11:08:29.270Z,22.50
2022-12-12T11:11:02.920Z,25.03
2022-12-12T11:13:39.582Z,26.60
2022-12-12T11:16:13.980Z,27.37
2022-12-12T11:18:45.322Z,22.63
2022-12-12T11:21:15.847Z,28.90
2022-12-12T11:23:55.265Z,22.27
2022-12-12T11:26:24.729Z,25.37
2022-12-12T11:28:58.506Z,24.60
2022-12-12T11:31:29.418Z,23.20
2022-12-12T11:33:59.952Z,26.23
2022-12-12T11:36:33.522Z,22.73
2022-12-12T11:39:16.473Z,25.73
2022-12-12T11:42:00.007Z,22.33
2022-12-12T11:44:34.492Z,21.93
2022-12-12T11:47:25.410Z,22.20
2022-12-12T11:49:55.335Z,23.37
2022-12-12T11:52:27.334Z,20.53
2022-12-12T11:54:57.737Z,22.43
2022-12-12T11:57:43.008Z,19.23
2022-12-12T12:00:16.973Z,19.00
2022-12-12T12:03:05.331Z,21.83
2022-12-12T12:05:42.110Z,21.60
2022-12-12T12:08:14.949Z,19.17
2022-12-12T12:10:53.688Z,14.30
2022-12-12T12:13:31.617Z,13.87
2022-12-12T12:16:08.827Z,12.03
2022-12-12T12:18:41.767Z,12.17
2022-12-12T12:21:26.154Z,11.07
2022-12-12T12:23:59.274Z,14.20
2022-12-12T12:26:32.568Z,17.40
2022-12-12T12:29:18.381Z,17.23
2022-12-12T12:31:55.373Z,17.33
2022-12-12T12:34:26.654Z,15.53
2022-12-12T12:37:07.453Z,13.87
2022-12-12T12:39:44.126Z,12.83
2022-12-12T12:42:17.001Z,14.70
2022-12-12T12:44:51.817Z,12.47
2022-12-12T12:47:29.159Z,13.97
2022-12-12T12:50:00.986Z,14.83
2022-12-12T12:52:32.918Z,13.77
2022-12-12T12:55:02.310Z,10.13
2022-12-12T12:57:33.022Z,9.63
2022-12-12T13:00:05.634Z,10.43
2022-12-12T13:02:42.914Z,14.57
2022-12-12T13:05:15.574Z,14.13
2022-12-12T13:07:48.024Z,11.90
2022-12-12T13:10:21.761Z,11.67
2022-12-12T13:12:54.172Z,10.73
2022-12-12T13:15:25.800Z,14.70
2022-12-12T13:18:01.253Z,15.20
2022-12-12T13:20:31.226Z,14.47
2022-12-12T13:23:05.634Z,11.33
2022-12-12T13:25:38.527Z,12.13
2022-12-12T13:28:12.816Z,13.63
2022-12-12T13:30:55.395Z,14.93
2022-12-12T13:33:37.546Z,10.40
2022-12-12T13:36:09.947Z,10.03
2022-12-12T13:38:39.027Z,8.30
2022-12-12T13:41:09.268Z,5.23
2022-12-12T13:43:44.607Z,5.77
2022-12-12T13:46:31.902Z,8.50
2022-12-12T13:49:04.155Z,8.77
2022-12-12T13:51:34.758Z,9.57
2022-12-12T13:54:22.670Z,9.27
2022-12-12T13:57:12.175Z,10.63
2022-12-12T14:00:29.408Z,9.70
2022-12-12T14:03:21.503Z,14.60
2022-12-12T14:05:52.041Z,25.13
2022-12-12T14:08:23.116Z,27.33
2022-12-12T14:10:56.868Z,33.87
2022-12-12T14:13:36.525Z,30.90
2022-12-12T14:16:07.438Z,29.97
2022-12-12T14:18:39.055Z,30.53
2022-12-12T14:21:10.772Z,30.13
2022-12-12T14:23:42.101Z,33.43
2022-12-12T14:26:29.733Z,34.70
2022-12-12T14:29:14.661Z,36.13
2022-12-12T14:31:47.332Z,37.97
2022-12-12T14:34:21.889Z,37.37
2022-12-12T14:37:05.401Z,33.67
2022-12-12T14:39:49.773Z,38.30
2022-12-12T14:42:23.927Z,38.07
2022-12-12T14:44:52.359Z,35.67
2022-12-12T14:47:21.299Z,40.20
2022-12-12T14:49:50.700Z,39.80
2022-12-12T14:52:22.854Z,41.80
2022-12-12T14:54:52.007Z,34.67
2022-12-12T14:57:23.221Z,37.20
2022-12-12T14:59:52.114Z,33.40
2022-12-12T15:02:24.659Z,30.93
2022-12-12T15:05:00.841Z,36.13
2022-12-12T15:07:33.740Z,34.53
2022-12-12T15:10:02.438Z,34.90
2022-12-12T15:12:37.076Z,37.37
2022-12-12T15:15:06.689Z,37.90
2022-12-12T15:17:38.724Z,42.57
2022-12-12T15:20:10.801Z,43.47
2022-12-12T15:22:40.568Z,45.33
2022-12-12T15:25:17.866Z,41.67
2022-12-12T15:27:55.264Z,39.63
2022-12-12T15:30:27.184Z,37.73
2022-12-12T15:32:59.150Z,38.87
2022-12-12T15:35:28.776Z,42.33
2022-12-12T15:37:58.392Z,40.53
2022-12-12T15:40:31.836Z,37.50
2022-12-12T15:43:02.714Z,40.47
2022-12-12T15:45:33.124Z,43.97
2022-12-12T15:48:02.374Z,40.10
2022-12-12T15:50:32.518Z,42.50
2022-12-12T15:53:02.255Z,41.23
2022-12-12T15:55:31.946Z,46.43
2022-12-12T15:58:01.786Z,40.30
2022-12-12T16:00:36.473Z,40.87
2022-12-12T16:03:07.127Z,43.20
2022-12-12T16:05:37.870Z,38.03
2022-12-12T16:08:31.299Z,40.50
2022-12-12T16:11:03.711Z,39.30
2022-12-12T16:13:41.862Z,40.33
2022-12-12T16:16:29.529Z,37.53
2022-12-12T16:18:59.291Z,38.43
2022-12-12T16:21:28.876Z,37.10
2022-12-12T16:24:10.698Z,45.23
2022-12-12T16:26:39.742Z,39.23
2022-12-12T16:29:09.662Z,43.27
2022-12-12T16:31:38.357Z,44.37
2022-12-12T16:34:07.238Z,41.60
2022-12-12T16:36:42.010Z,48.73
2022-12-12T16:39:14.550Z,45.53
2022-12-12T16:41:44.498Z,47.83
2022-12-12T16:44:15.245Z,42.93
2022-12-12T16:46:43.866Z,44.57
2022-12-12T16:49:15.512Z,43.47
2022-12-12T16:51:44.659Z,47.53
2022-12-12T16:54:16.078Z,51.20
2022-12-12T16:56:45.111Z,48.87
2022-12-12T16:59:16.478Z,48.40
2022-12-12T17:01:46.399Z,49.60
2022-12-12T17:04:19.116Z,53.67
2022-12-12T17:06:47.959Z,53.03
2022-12-12T17:09:16.432Z,52.90
2022-12-12T17:11:45.699Z,62.03
2022-12-12T17:14:18.689Z,106.60
2022-12-12T17:16:47.383Z,63.27
2022-12-12T17:19:15.917Z,58.53
2022-12-12T17:21:45.051Z,48.90
2022-12-12T17:24:14.042Z,50.93
2022-12-12T17:26:45.220Z,55.90
2022-12-12T17:29:13.803Z,60.27
2022-12-12T17:31:44.184Z,54.77
2022-12-12T17:34:14.469Z,49.50
2022-12-12T17:36:42.952Z,57.10
2022-12-12T17:39:12.232Z,60.77
2022-12-12T17:41:41.382Z,54.90
2022-12-12T17:44:10.112Z,52.97
2022-12-12T17:46:41.905Z,58.03
2022-12-12T17:49:11.764Z,52.57
2022-12-12T17:51:40.282Z,53.60
2022-12-12T17:54:09.637Z,56.17
2022-12-12T17:56:39.300Z,60.17
2022-12-12T17:59:09.950Z,53.00
2022-12-12T18:01:38.465Z,55.03
2022-12-12T18:04:07.487Z,58.47
2022-12-12T18:06:37.659Z,57.40
2022-12-12T18:09:07.190Z,58.73
2022-12-12T18:11:38.111Z,67.13
2022-12-12T18:14:09.667Z,56.23
2022-12-12T18:16:39.150Z,64.90
2022-12-12T18:19:07.726Z,61.27
2022-12-12T18:24:29.333Z,58.03
2022-12-12T18:26:59.103Z,65.77
2022-12-12T18:29:28.428Z,69.70
2022-12-12T18:31:56.997Z,60.80
2022-12-12T18:34:26.407Z,70.03
2022-12-12T18:36:56.343Z,70.33
2022-12-12T18:39:24.892Z,68.33
2022-12-12T18:41:53.561Z,61.73
2022-12-12T18:44:22.246Z,61.73
2022-12-12T18:46:51.873Z,65.10
2022-12-12T18:49:20.516Z,71.17
2022-12-12T18:51:51.876Z,72.07
2022-12-12T18:54:21.810Z,78.07
2022-12-12T18:56:50.615Z,73.07
2022-12-12T18:59:19.317Z,69.13
2022-12-12T19:01:48.743Z,68.93
2022-12-12T19:04:23.148Z,70.70
2022-12-12T19:06:53.148Z,71.57
2022-12-12T19:09:27.405Z,69.33
2022-12-12T19:12:02.320Z,67.20
2022-12-12T19:17:25.661Z,67.13
2022-12-12T19:19:55.320Z,61.43
2022-12-12T19:25:17.625Z,60.47
2022-12-12T19:27:47.735Z,61.33
2022-12-12T19:30:17.315Z,58.13
2022-12-12T19:32:49.025Z,71.67
2022-12-12T19:35:17.798Z,54.73
2022-12-12T19:37:48.516Z,66.67
2022-12-12T19:40:19.370Z,62.20
2022-12-12T19:42:48.193Z,55.87
2022-12-12T19:45:16.669Z,58.53
2022-12-12T19:47:45.108Z,59.10
2022-12-12T19:50:13.872Z,57.90
2022-12-12T19:52:43.254Z,63.97
2022-12-12T19:55:11.930Z,56.00
2022-12-12T19:57:42.149Z,57.37
2022-12-12T20:00:11.638Z,54.47
2022-12-12T20:02:40.403Z,57.87
2022-12-12T20:05:09.184Z,58.37
2022-12-12T20:07:37.933Z,56.20
2022-12-12T20:10:07.260Z,55.43
2022-12-12T20:12:35.811Z,47.87
2022-12-12T20:15:05.768Z,56.33
2022-12-12T20:17:34.349Z,56.87
2022-12-12T20:20:03.438Z,61.80
2022-12-12T20:22:32.277Z,55.50
2022-12-12T20:25:00.884Z,59.27
2022-12-12T20:27:30.012Z,59.17
2022-12-12T20:29:58.528Z,61.67
2022-12-12T20:32:30.723Z,57.83
2022-12-12T20:34:59.326Z,62.20
2022-12-12T20:37:27.815Z,54.00
2022-12-12T20:39:56.872Z,59.23
2022-12-12T20:42:25.358Z,55.57
2022-12-12T20:44:54.152Z,62.37
2022-12-12T20:47:23.212Z,54.23
2022-12-12T20:49:54.268Z,63.27
2022-12-12T20:52:22.701Z,62.27
2022-12-12T20:54:51.419Z,56.83
2022-12-12T20:57:20.216Z,50.30
2022-12-12T20:59:49.430Z,53.33
2022-12-12T21:02:18.065Z,53.33
2022-12-12T21:04:56.026Z,51.10
2022-12-12T21:07:24.820Z,64.40
2022-12-12T21:09:57.562Z,59.33
2022-12-12T21:12:26.430Z,62.43
2022-12-12T21:15:01.086Z,52.90
2022-12-12T21:17:31.509Z,58.83
2022-12-12T21:20:06.265Z,55.23
2022-12-12T21:22:35.344Z,52.80
2022-12-12T21:25:03.933Z,52.90
2022-12-12T21:27:33.269Z,55.43
2022-12-12T21:30:01.866Z,53.70
2022-12-12T21:32:30.495Z,54.97
2022-12-12T21:34:59.058Z,54.57
2022-12-12T21:37:29.996Z,48.50
2022-12-12T21:39:58.996Z,51.50
2022-12-12T21:42:27.493Z,51.70
2022-12-12T21:44:56.010Z,53.97
2022-12-12T21:47:24.766Z,52.37
2022-12-12T21:49:53.320Z,51.90
2022-12-12T21:52:21.997Z,52.77
2022-12-12T21:54:52.203Z,60.03
2022-12-12T21:57:24.779Z,56.73
2022-12-12T21:59:53.577Z,53.73
2022-12-12T22:02:22.194Z,54.10
2022-12-12T22:04:51.189Z,49.83
2022-12-12T22:07:22.343Z,54.13
2022-12-12T22:09:57.073Z,47.93
2022-12-12T22:12:27.611Z,48.60
2022-12-12T22:14:56.097Z,50.93
2022-12-12T22:17:24.587Z,46.70
2022-12-12T22:19:53.068Z,45.40
2022-12-12T22:22:21.658Z,47.03
2022-12-12T22:24:50.364Z,47.70
2022-12-12T22:27:20.182Z,44.93
2022-12-12T22:29:48.604Z,51.53
2022-12-12T22:32:17.088Z,43.63
2022-12-12T22:34:46.859Z,48.53
2022-12-12T22:37:15.334Z,48.60
2022-12-12T22:39:43.801Z,53.93
2022-12-12T22:42:12.387Z,50.50
2022-12-12T22:44:42.288Z,52.53
2022-12-12T22:47:10.894Z,58.37
2022-12-12T22:49:39.393Z,49.73
2022-12-12T22:52:07.902Z,50.27
2022-12-12T22:54:36.939Z,50.70
2022-12-12T22:57:05.804Z,48.07
2022-12-12T22:59:34.317Z,52.90
2022-12-12T23:02:07.179Z,46.77
2022-12-12T23:04:36.392Z,49.03
2022-12-12T23:07:05.152Z,47.17
2022-12-12T23:09:34.258Z,43.93
2022-12-12T23:12:03.185Z,42.27
2022-12-12T23:14:31.896Z,40.33
2022-12-12T23:17:00.490Z,40.97
2022-12-12T23:19:30.694Z,42.33
2022-12-12T23:21:59.102Z,46.70
2022-12-12T23:24:27.649Z,43.73
2022-12-12T23:26:56.225Z,42.07
2022-12-12T23:29:26.954Z,40.33
2022-12-12T23:31:59.408Z,43.47
2022-12-12T23:34:27.962Z,45.63
2022-12-12T23:36:58.224Z,51.60
2022-12-12T23:39:27.470Z,43.00
2022-12-12T23:41:56.697Z,46.07
2022-12-12T23:44:25.532Z,42.03
2022-12-12T23:46:54.560Z,44.33
2022-12-12T23:49:24.239Z,44.07
2022-12-12T23:51:53.559Z,39.93
2022-12-12T23:54:24.155Z,44.20
2022-12-12T23:56:53.101Z,47.00
2022-12-12T23:59:21.994Z,39.10
